Orbital elements of GREENCUBE
| Launched | 12 July 2022 |
| Flight ended | – |
| Launch site | Europe's Spaceport, Kourou, French Guiana |
| Owner | Italy |
| NORAD ID | 53109 |
| Alternative names |
IO-117 |
| Date fetched |
Epoch osculation |
Inc. [°] |
Ecc. | RA asc node [hr] |
Arg Peri. [°] |
Mean anom [°] |
Mean motion [rev/day] |
Abs. mag |
| Date fetched |
Epoch osculation |
Inc. [°] |
Ecc. | RA asc node [hr] |
Arg Peri. [°] |
Mean anom [°] |
Mean motion [rev/day] |
Abs. mag |
| 2026 May 01 17:56 | 2026 May 01 11:50:27 | 70.1455 | 0.00089 | 20.9662 | 300.4355 | 59.5429 | 6.42583 | – |
| 2026 Apr 30 17:56 | 2026 Apr 29 11:16:56 | 70.1461 | 0.00089 | 21.0131 | 300.7857 | 59.5429 | 6.42583 | – |
| 2026 Apr 29 17:57 | 2026 Apr 29 11:16:56 | 70.1461 | 0.00089 | 21.0131 | 300.7857 | 59.5429 | 6.42583 | – |
| 2026 Apr 28 17:56 | 2026 Apr 26 23:31:05 | 70.1458 | 0.00088 | 21.0709 | 301.5581 | 59.5429 | 6.42583 | – |
| 2026 Apr 27 17:58 | 2026 Apr 26 23:31:05 | 70.1458 | 0.00088 | 21.0709 | 301.5581 | 59.5429 | 6.42583 | – |
| 2026 Apr 26 17:58 | 2026 Apr 26 12:18:44 | 70.1461 | 0.00088 | 21.0817 | 301.5806 | 59.5429 | 6.42583 | – |
| 2026 Apr 25 17:58 | 2026 Apr 24 22:57:34 | 70.1460 | 0.00088 | 21.1178 | 301.9104 | 59.5429 | 6.42583 | – |
| 2026 Apr 24 17:59 | 2026 Apr 21 23:59:21 | 70.1477 | 0.00088 | 21.1864 | 302.3511 | 59.5429 | 6.42583 | – |
| 2026 Apr 23 17:57 | 2026 Apr 21 23:59:21 | 70.1477 | 0.00088 | 21.1864 | 302.3511 | 59.5429 | 6.42583 | – |
| 2026 Apr 22 17:57 | 2026 Apr 21 23:59:21 | 70.1477 | 0.00088 | 21.1864 | 302.3511 | 59.5429 | 6.42583 | – |
| 2026 Apr 21 17:57 | 2026 Apr 19 23:25:50 | 70.1483 | 0.00088 | 21.2333 | 302.7217 | 59.5429 | 6.42583 | – |
| 2026 Apr 20 17:57 | 2026 Apr 19 23:25:50 | 70.1483 | 0.00088 | 21.2333 | 302.7217 | 59.5429 | 6.42583 | – |
| 2026 Apr 19 17:58 | 2026 Apr 16 13:15:17 | 70.1493 | 0.00089 | 21.3127 | 303.6327 | 59.5429 | 6.42583 | – |
| 2026 Apr 18 17:56 | 2026 Apr 16 13:15:17 | 70.1493 | 0.00089 | 21.3127 | 303.6327 | 59.5429 | 6.42583 | – |
| 2026 Apr 16 17:57 | 2026 Apr 15 22:18:49 | 70.1490 | 0.00089 | 21.3272 | 303.9068 | 59.5429 | 6.42583 | – |
| 2026 Apr 14 17:57 | 2026 Apr 14 12:41:46 | 70.1496 | 0.00089 | 21.3597 | 304.2595 | 59.5429 | 6.42583 | – |
| 2026 Apr 13 17:57 | 2026 Apr 12 15:52:22 | 70.1495 | 0.00089 | 21.4030 | 304.4164 | 59.5429 | 6.42583 | – |
| 2026 Apr 12 17:57 | 2026 Apr 10 22:47:05 | 70.1502 | 0.00090 | 21.4427 | 304.6549 | 59.5429 | 6.42583 | – |
| 2026 Apr 11 17:57 | 2026 Apr 10 22:47:05 | 70.1502 | 0.00090 | 21.4427 | 304.6549 | 59.5429 | 6.42583 | – |
| 2026 Apr 10 17:58 | 2026 Apr 10 00:22:23 | 70.1508 | 0.00090 | 21.4643 | 304.6747 | 59.5429 | 6.42583 | – |
| 2026 Apr 09 18:01 | 2026 Apr 08 14:45:20 | 70.1512 | 0.00090 | 21.4968 | 305.0632 | 59.5429 | 6.42583 | – |
| 2026 Apr 08 17:57 | 2026 Apr 07 23:48:52 | 70.1515 | 0.00090 | 21.5112 | 305.1086 | 59.5429 | 6.42583 | – |
| 2026 Apr 07 17:57 | 2026 Apr 06 14:11:50 | 70.1521 | 0.00090 | 21.5437 | 305.4230 | 59.5429 | 6.42583 | – |
| 2026 Apr 06 17:57 | 2026 Apr 04 13:38:19 | 70.1528 | 0.00090 | 21.5906 | 305.8170 | 59.5429 | 6.42583 | – |
| 2026 Apr 05 17:56 | 2026 Apr 04 13:38:19 | 70.1528 | 0.00090 | 21.5906 | 305.8170 | 59.5429 | 6.42583 | – |
| 2026 Apr 04 17:57 | 2026 Mar 31 23:43:38 | 70.1536 | 0.00090 | 21.6736 | 306.3934 | 59.5429 | 6.42583 | – |